createdAt,value
2023-05-21T00:01:48.460Z,50.01
2023-05-21T00:04:15.625Z,50.13
2023-05-21T00:06:41.974Z,49.71
2023-05-21T00:09:08.313Z,49.94
2023-05-21T00:11:34.715Z,50.11
2023-05-21T00:14:01.106Z,50.53
2023-05-21T00:16:27.508Z,51.26
2023-05-21T00:18:54.659Z,51.73
2023-05-21T00:21:25.920Z,51.76
2023-05-21T00:23:54.158Z,51.63
2023-05-21T00:26:21.570Z,52.17
2023-05-21T00:28:47.939Z,52.65
2023-05-21T00:31:14.274Z,52.58
2023-05-21T00:33:40.625Z,52.02
2023-05-21T00:36:06.977Z,54.49
2023-05-21T00:38:33.300Z,57.68
2023-05-21T00:41:02.802Z,54.45
2023-05-21T00:43:29.131Z,53.48
2023-05-21T00:45:56.470Z,53.34
2023-05-21T00:48:22.892Z,53.11
2023-05-21T00:50:51.073Z,52.55
2023-05-21T00:53:19.274Z,51.93
2023-05-21T00:55:46.135Z,51.80
2023-05-21T00:58:12.496Z,51.40
2023-05-21T01:00:40.437Z,50.40
2023-05-21T01:03:06.854Z,50.42
2023-05-21T01:05:33.548Z,50.13
2023-05-21T01:07:59.994Z,50.16
2023-05-21T01:10:26.363Z,50.74
2023-05-21T01:12:52.767Z,52.52
2023-05-21T01:15:19.104Z,53.98
2023-05-21T01:17:46.064Z,53.51
2023-05-21T01:20:12.634Z,52.66
2023-05-21T01:22:41.892Z,51.79
2023-05-21T01:25:08.401Z,51.57
2023-05-21T01:27:34.756Z,50.76
2023-05-21T01:30:01.077Z,50.59
2023-05-21T01:32:34.852Z,50.46
2023-05-21T01:35:11.282Z,50.08
2023-05-21T01:37:38.609Z,49.64
2023-05-21T01:40:34.424Z,49.60
2023-05-21T01:43:00.857Z,49.74
2023-05-21T01:45:27.168Z,49.19
2023-05-21T01:47:53.955Z,49.84
2023-05-21T01:50:20.403Z,51.41
2023-05-21T01:52:53.960Z,52.03
2023-05-21T01:55:24.399Z,51.62
2023-05-21T01:57:53.551Z,51.38
2023-05-21T02:00:22.888Z,50.85
2023-05-21T02:02:49.516Z,51.07
2023-05-21T02:05:15.995Z,51.34
2023-05-21T02:07:43.765Z,51.28
2023-05-21T02:10:10.546Z,50.90
2023-05-21T02:12:36.929Z,51.03
2023-05-21T02:15:03.857Z,51.32
2023-05-21T02:17:33.657Z,51.32
2023-05-21T02:20:11.024Z,51.12
2023-05-21T02:22:46.821Z,51.35
2023-05-21T02:25:14.095Z,51.83
2023-05-21T02:27:40.577Z,51.98
2023-05-21T02:30:07.280Z,51.86
2023-05-21T02:32:34.010Z,51.48
2023-05-21T02:35:00.781Z,51.62
2023-05-21T02:37:27.629Z,51.74
2023-05-21T02:39:56.925Z,52.34
2023-05-21T02:42:23.599Z,53.08
2023-05-21T02:44:50.966Z,53.36
2023-05-21T02:47:17.636Z,53.33
2023-05-21T02:49:43.983Z,52.77
2023-05-21T02:52:10.300Z,52.16
2023-05-21T02:54:36.628Z,51.33
2023-05-21T02:57:03.051Z,50.82
2023-05-21T02:59:29.402Z,50.39
2023-05-21T03:01:55.974Z,50.69
2023-05-21T03:04:22.284Z,51.11
2023-05-21T03:06:49.841Z,50.63
2023-05-21T03:09:16.700Z,52.05
2023-05-21T03:11:43.040Z,52.02
2023-05-21T03:14:09.884Z,52.88
2023-05-21T03:16:36.375Z,52.67
2023-05-21T03:19:02.818Z,52.26
2023-05-21T03:21:30.028Z,51.77
2023-05-21T03:23:58.674Z,51.57
2023-05-21T03:26:28.012Z,51.40
2023-05-21T03:28:54.353Z,51.62
2023-05-21T03:31:20.904Z,52.16
2023-05-21T03:33:47.255Z,52.89
2023-05-21T03:36:13.586Z,53.74
2023-05-21T03:38:39.933Z,53.40
2023-05-21T03:41:06.456Z,53.92
2023-05-21T03:43:32.777Z,53.81
2023-05-21T03:45:59.145Z,54.06
2023-05-21T03:48:25.491Z,53.80
2023-05-21T03:50:51.844Z,53.27
2023-05-21T03:53:18.221Z,52.47
2023-05-21T03:55:44.542Z,51.91
2023-05-21T03:58:10.970Z,51.12
2023-05-21T04:00:37.455Z,50.99
2023-05-21T04:03:04.141Z,50.97
2023-05-21T04:05:30.483Z,50.78
2023-05-21T04:07:58.677Z,50.68
2023-05-21T04:10:25.008Z,50.52
2023-05-21T04:12:52.360Z,51.10
2023-05-21T04:15:19.156Z,52.39
2023-05-21T04:17:45.520Z,52.72
2023-05-21T04:20:13.604Z,52.56
2023-05-21T04:22:40.059Z,52.85
2023-05-21T04:25:06.481Z,52.83
2023-05-21T04:27:34.471Z,52.55
2023-05-21T04:30:00.805Z,52.32
2023-05-21T04:32:28.529Z,52.21
2023-05-21T04:34:54.975Z,50.92
2023-05-21T04:37:24.483Z,50.89
2023-05-21T04:39:50.820Z,50.42
2023-05-21T04:42:19.371Z,50.49
2023-05-21T04:44:45.709Z,50.73
2023-05-21T04:47:14.732Z,51.30
2023-05-21T04:49:41.760Z,51.18
2023-05-21T04:52:08.351Z,50.81
2023-05-21T04:54:36.459Z,50.73
2023-05-21T04:57:02.909Z,50.67
2023-05-21T04:59:29.235Z,50.56
2023-05-21T05:01:55.713Z,50.70
2023-05-21T05:04:22.068Z,50.29
2023-05-21T05:06:48.477Z,49.75
2023-05-21T05:09:14.843Z,50.05
2023-05-21T05:11:41.214Z,49.91
2023-05-21T05:14:07.546Z,50.35
2023-05-21T05:16:35.489Z,50.33
2023-05-21T05:19:01.989Z,50.79
2023-05-21T05:21:28.398Z,51.00
2023-05-21T05:23:54.745Z,49.01
2023-05-21T05:26:21.584Z,47.65
2023-05-21T05:28:48.061Z,47.09
2023-05-21T05:31:14.672Z,47.29
2023-05-21T05:33:41.487Z,47.52
2023-05-21T05:36:07.875Z,46.38
2023-05-21T05:38:34.376Z,46.28
2023-05-21T05:41:00.765Z,46.33
2023-05-21T05:43:27.085Z,45.91
2023-05-21T05:45:53.444Z,45.59
2023-05-21T05:48:19.805Z,44.79
2023-05-21T05:50:46.501Z,44.61
2023-05-21T05:53:15.937Z,44.07
2023-05-21T05:55:42.289Z,44.39
2023-05-21T05:58:08.608Z,44.30
2023-05-21T06:00:34.985Z,43.95
2023-05-21T06:03:01.467Z,42.82
2023-05-21T06:05:27.908Z,42.48
2023-05-21T06:07:54.295Z,42.34
2023-05-21T06:10:20.841Z,42.13
2023-05-21T06:12:47.175Z,41.58
2023-05-21T06:15:14.919Z,41.45
2023-05-21T06:17:41.306Z,40.73
2023-05-21T06:20:11.497Z,41.68
2023-05-21T06:22:37.904Z,41.22
2023-05-21T06:25:04.548Z,41.63
2023-05-21T06:27:30.960Z,42.56
2023-05-21T06:29:57.345Z,42.70
2023-05-21T06:32:24.475Z,43.78
2023-05-21T06:34:50.857Z,44.11
2023-05-21T06:37:21.116Z,44.83
2023-05-21T06:39:47.494Z,44.35
2023-05-21T06:42:13.815Z,45.10
2023-05-21T06:44:40.146Z,44.06
2023-05-21T06:47:06.489Z,42.33
2023-05-21T06:49:32.928Z,44.44
2023-05-21T06:51:59.263Z,42.26
2023-05-21T06:54:26.911Z,43.43
2023-05-21T06:56:53.455Z,43.49
2023-05-21T06:59:19.844Z,46.26
2023-05-21T07:01:46.237Z,44.11
2023-05-21T07:04:12.690Z,47.01
2023-05-21T07:06:39.099Z,46.77
2023-05-21T07:09:06.018Z,46.15
2023-05-21T07:11:32.581Z,47.08
2023-05-21T07:14:00.320Z,46.11
2023-05-21T07:16:26.721Z,47.59
2023-05-21T07:18:53.082Z,45.68
2023-05-21T07:21:19.418Z,44.64
2023-05-21T07:23:45.780Z,44.49
2023-05-21T07:26:12.121Z,43.54
2023-05-21T07:28:38.433Z,44.39
2023-05-21T07:31:04.859Z,46.50
2023-05-21T07:33:31.258Z,45.99
2023-05-21T07:35:57.582Z,45.59
2023-05-21T07:38:23.935Z,45.60
2023-05-21T07:40:50.333Z,44.57
2023-05-21T07:43:16.698Z,45.51
2023-05-21T07:45:43.057Z,46.49
2023-05-21T07:48:09.459Z,44.64
2023-05-21T07:50:35.802Z,44.39
2023-05-21T07:53:02.200Z,43.83
2023-05-21T07:55:28.610Z,44.14
2023-05-21T07:57:54.960Z,45.45
2023-05-21T08:00:22.708Z,44.24
2023-05-21T08:02:49.203Z,45.06
2023-05-21T08:05:16.483Z,44.48
2023-05-21T08:07:42.960Z,44.14
2023-05-21T08:10:09.339Z,43.42
2023-05-21T08:12:35.723Z,44.00
2023-05-21T08:15:02.066Z,42.67
2023-05-21T08:17:28.537Z,44.67
2023-05-21T08:19:54.959Z,43.31
2023-05-21T08:22:21.384Z,43.25
2023-05-21T08:24:48.340Z,45.17
2023-05-21T08:27:16.105Z,42.87
2023-05-21T08:29:42.869Z,42.29
2023-05-21T08:32:09.971Z,42.28
2023-05-21T08:34:36.603Z,42.60
2023-05-21T08:37:08.774Z,43.83
2023-05-21T08:39:35.184Z,45.26
2023-05-21T08:42:04.758Z,44.27
2023-05-21T08:44:31.102Z,42.57
2023-05-21T08:46:57.479Z,43.00
2023-05-21T08:49:26.392Z,43.03
2023-05-21T08:51:53.423Z,43.49
2023-05-21T08:54:19.749Z,43.66
2023-05-21T08:56:47.069Z,41.73
2023-05-21T08:59:13.495Z,41.76
2023-05-21T09:01:42.273Z,41.08
2023-05-21T09:04:19.493Z,42.02
2023-05-21T09:06:47.548Z,42.93
2023-05-21T09:09:34.210Z,42.38
2023-05-21T09:12:00.857Z,43.19
2023-05-21T09:14:27.197Z,42.67
2023-05-21T09:16:53.642Z,41.69
2023-05-21T09:19:20.571Z,41.78
2023-05-21T09:21:46.959Z,42.10
2023-05-21T09:24:13.757Z,42.39
2023-05-21T09:26:43.444Z,42.16
2023-05-21T09:29:09.878Z,41.27
2023-05-21T09:31:36.683Z,40.56
2023-05-21T09:34:03.172Z,39.67
2023-05-21T09:36:29.670Z,40.54
2023-05-21T09:38:58.284Z,39.92
2023-05-21T09:41:31.006Z,40.20
2023-05-21T09:44:01.029Z,41.99
2023-05-21T09:46:27.462Z,41.63
2023-05-21T09:48:53.861Z,40.83
2023-05-21T09:51:20.400Z,41.02
2023-05-21T09:53:48.499Z,40.50
2023-05-21T09:56:14.850Z,40.58
2023-05-21T09:58:41.242Z,40.60
2023-05-21T10:01:08.295Z,38.77
2023-05-21T10:03:36.061Z,39.99
2023-05-21T10:06:02.422Z,39.71
2023-05-21T10:08:28.750Z,39.48
2023-05-21T10:10:55.072Z,40.40
2023-05-21T10:13:21.919Z,42.03
2023-05-21T10:15:50.772Z,40.78
2023-05-21T10:18:18.221Z,40.25
2023-05-21T10:20:44.658Z,40.93
2023-05-21T10:23:11.061Z,40.42
2023-05-21T10:25:37.398Z,40.68
2023-05-21T10:28:03.780Z,40.58
2023-05-21T10:30:30.128Z,40.68
2023-05-21T10:32:57.275Z,38.12
2023-05-21T10:35:23.837Z,39.54
2023-05-21T10:37:50.436Z,39.99
2023-05-21T10:40:16.773Z,38.90
2023-05-21T10:42:57.094Z,39.37
2023-05-21T10:45:26.536Z,39.74
2023-05-21T10:47:55.940Z,37.88
2023-05-21T10:50:26.981Z,37.65
2023-05-21T10:53:13.647Z,39.78
2023-05-21T10:55:43.090Z,38.97
2023-05-21T10:58:20.780Z,37.76
2023-05-21T11:00:47.117Z,37.90
2023-05-21T11:03:13.580Z,37.63
2023-05-21T11:05:41.452Z,36.05
2023-05-21T11:08:19.436Z,38.81
2023-05-21T11:10:46.021Z,39.54
2023-05-21T11:13:16.486Z,38.96
2023-05-21T11:16:06.556Z,39.04
2023-05-21T11:18:35.631Z,38.81
2023-05-21T11:21:15.359Z,38.05
2023-05-21T11:23:53.675Z,38.70
2023-05-21T11:26:21.553Z,37.35
2023-05-21T11:28:51.108Z,37.51
2023-05-21T11:31:26.754Z,38.31
2023-05-21T11:34:12.013Z,35.71
2023-05-21T11:36:38.905Z,36.46
2023-05-21T11:39:09.365Z,35.30
2023-05-21T11:41:50.967Z,37.20
2023-05-21T11:44:17.295Z,37.95
2023-05-21T11:46:43.655Z,36.64
2023-05-21T11:49:10.079Z,35.54
2023-05-21T11:51:36.614Z,36.33
2023-05-21T11:54:02.960Z,36.92
2023-05-21T11:56:31.790Z,35.80
2023-05-21T11:58:58.196Z,36.37
2023-05-21T12:01:24.536Z,36.23
2023-05-21T12:03:51.099Z,36.62
2023-05-21T12:06:18.183Z,35.68
2023-05-21T12:08:45.432Z,35.95
2023-05-21T12:11:11.768Z,36.14
2023-05-21T12:13:38.121Z,35.99
2023-05-21T12:16:06.650Z,35.74
2023-05-21T12:18:33.383Z,35.20
2023-05-21T12:20:59.728Z,37.07
2023-05-21T12:23:26.098Z,35.89
2023-05-21T12:25:53.589Z,35.71
2023-05-21T12:28:20.878Z,36.27
2023-05-21T12:30:47.495Z,35.87
2023-05-21T12:33:14.139Z,36.38
2023-05-21T12:35:40.517Z,37.06
2023-05-21T12:38:07.203Z,36.89
2023-05-21T12:40:37.465Z,36.77
2023-05-21T12:43:04.470Z,36.64
2023-05-21T12:45:31.127Z,35.75
2023-05-21T12:47:57.637Z,36.47
2023-05-21T12:50:23.972Z,36.37
2023-05-21T12:52:53.367Z,36.85
2023-05-21T12:55:19.761Z,36.74
2023-05-21T12:57:46.517Z,35.42
2023-05-21T13:00:14.135Z,35.30
2023-05-21T13:02:41.130Z,35.49
2023-05-21T13:05:07.893Z,35.55
2023-05-21T13:07:34.772Z,34.66
2023-05-21T13:10:01.355Z,35.56
2023-05-21T13:12:28.220Z,35.91
2023-05-21T13:14:58.286Z,35.48
2023-05-21T13:17:25.062Z,34.86
2023-05-21T13:20:12.224Z,34.97
2023-05-21T13:22:42.154Z,35.98
2023-05-21T13:25:09.134Z,35.96
2023-05-21T13:27:35.473Z,36.26
2023-05-21T13:30:01.986Z,37.15
2023-05-21T13:32:28.484Z,36.31
2023-05-21T13:34:54.918Z,35.42
2023-05-21T13:37:21.340Z,36.17
2023-05-21T13:39:47.679Z,35.70
2023-05-21T13:42:14.062Z,36.19
2023-05-21T13:44:40.412Z,35.22
2023-05-21T13:47:06.867Z,35.49
2023-05-21T13:49:33.287Z,34.75
2023-05-21T13:52:00.770Z,35.48
2023-05-21T13:54:27.281Z,35.70
2023-05-21T13:56:53.725Z,34.49
2023-05-21T13:59:20.425Z,34.23
2023-05-21T14:01:47.910Z,35.23
2023-05-21T14:04:14.239Z,36.14
2023-05-21T14:06:41.119Z,35.57
2023-05-21T14:09:07.519Z,35.58
2023-05-21T14:11:34.127Z,35.45
2023-05-21T14:14:00.785Z,34.78
2023-05-21T14:16:27.615Z,34.93
2023-05-21T14:18:54.426Z,34.51
2023-05-21T14:21:20.963Z,36.04
2023-05-21T14:23:47.352Z,35.09
2023-05-21T14:26:13.920Z,35.63
2023-05-21T14:28:40.240Z,35.43
2023-05-21T14:31:06.738Z,35.61
2023-05-21T14:33:33.778Z,34.68
2023-05-21T14:36:00.640Z,34.85
2023-05-21T14:38:27.785Z,34.67
2023-05-21T14:40:54.282Z,34.95
2023-05-21T14:43:20.636Z,34.99
2023-05-21T14:45:47.101Z,35.22
2023-05-21T14:48:13.465Z,35.76
2023-05-21T14:50:39.797Z,37.29
2023-05-21T14:53:06.472Z,34.92
2023-05-21T14:55:36.752Z,34.73
2023-05-21T14:58:03.946Z,34.98
2023-05-21T15:00:30.613Z,34.90
2023-05-21T15:02:57.616Z,35.32
2023-05-21T15:05:24.491Z,35.49
2023-05-21T15:07:50.863Z,36.86
2023-05-21T15:10:18.768Z,36.54
2023-05-21T15:12:45.226Z,37.04
2023-05-21T15:15:12.331Z,36.21
2023-05-21T15:17:38.792Z,36.22
2023-05-21T15:20:05.617Z,36.50
2023-05-21T15:22:32.014Z,36.66
2023-05-21T15:24:58.386Z,36.99
2023-05-21T15:27:24.872Z,34.74
2023-05-21T15:29:51.368Z,34.62
2023-05-21T15:32:22.546Z,34.10
2023-05-21T15:34:49.113Z,33.58
2023-05-21T15:37:15.604Z,34.73
2023-05-21T15:39:46.561Z,34.23
2023-05-21T15:42:13.020Z,34.94
2023-05-21T15:44:39.441Z,34.30
2023-05-21T15:47:06.311Z,35.06
2023-05-21T15:49:32.733Z,35.03
2023-05-21T15:52:00.645Z,35.60
2023-05-21T15:54:27.382Z,34.72
2023-05-21T15:56:53.730Z,34.48
2023-05-21T15:59:20.059Z,34.76
2023-05-21T16:01:46.552Z,35.68
2023-05-21T16:04:13.484Z,34.81
2023-05-21T16:06:39.869Z,35.03
2023-05-21T16:09:06.336Z,35.13
2023-05-21T16:11:32.701Z,34.26
2023-05-21T16:13:59.050Z,34.03
2023-05-21T16:16:25.461Z,33.79
2023-05-21T16:18:51.887Z,34.36
2023-05-21T16:21:18.311Z,34.30
2023-05-21T16:23:44.685Z,34.38
2023-05-21T16:26:11.041Z,34.32
2023-05-21T16:28:37.516Z,33.70
2023-05-21T16:31:04.196Z,33.54
2023-05-21T16:33:30.544Z,33.27
2023-05-21T16:35:56.894Z,33.75
2023-05-21T16:38:23.205Z,34.35
2023-05-21T16:40:49.554Z,34.60
2023-05-21T16:43:16.107Z,34.47
2023-05-21T16:45:43.136Z,34.03
2023-05-21T16:48:09.542Z,33.91
2023-05-21T16:50:36.009Z,33.35
2023-05-21T16:53:02.674Z,33.39
2023-05-21T16:55:29.866Z,33.74
2023-05-21T16:57:56.213Z,35.03
2023-05-21T17:00:22.731Z,34.31
2023-05-21T17:02:49.130Z,34.08
2023-05-21T17:05:15.524Z,34.04
2023-05-21T17:07:41.951Z,34.33
2023-05-21T17:10:08.616Z,34.39
2023-05-21T17:12:34.992Z,34.50
2023-05-21T17:15:01.602Z,34.34
2023-05-21T17:17:27.970Z,35.07
2023-05-21T17:19:54.295Z,35.86
2023-05-21T17:22:20.662Z,34.40
2023-05-21T17:24:47.401Z,33.62
2023-05-21T17:27:13.743Z,33.48
2023-05-21T17:29:40.086Z,35.08
2023-05-21T17:32:06.449Z,35.12
2023-05-21T17:34:32.761Z,34.91
2023-05-21T17:36:59.083Z,35.71
2023-05-21T17:39:25.526Z,35.50
2023-05-21T17:41:51.957Z,35.24
2023-05-21T17:44:18.376Z,36.31
2023-05-21T17:46:45.068Z,35.68
2023-05-21T17:49:11.476Z,35.37
2023-05-21T17:51:37.816Z,35.83
2023-05-21T17:54:04.499Z,36.28
2023-05-21T17:56:34.261Z,36.26
2023-05-21T17:59:00.572Z,36.01
2023-05-21T18:01:27.002Z,36.25
2023-05-21T18:03:53.362Z,36.23
2023-05-21T18:06:19.737Z,36.99
2023-05-21T18:08:46.086Z,36.90
2023-05-21T18:11:12.414Z,36.91
2023-05-21T18:13:38.802Z,36.49
2023-05-21T18:16:05.331Z,36.95
2023-05-21T18:18:31.870Z,36.89
2023-05-21T18:20:58.256Z,36.85
2023-05-21T18:23:24.767Z,37.07
2023-05-21T18:25:51.134Z,36.69
2023-05-21T18:28:17.478Z,36.71
2023-05-21T18:30:43.838Z,36.62
2023-05-21T18:33:11.089Z,36.36
2023-05-21T18:35:37.741Z,36.08
2023-05-21T18:38:09.551Z,36.39
2023-05-21T18:40:36.586Z,36.42
2023-05-21T18:43:06.370Z,36.47
2023-05-21T18:45:33.066Z,36.41
2023-05-21T18:47:59.484Z,37.25
2023-05-21T18:50:25.876Z,37.42
2023-05-21T18:52:53.749Z,37.38
2023-05-21T18:55:20.267Z,36.93
2023-05-21T18:57:46.602Z,37.21
2023-05-21T19:00:13.374Z,37.42
2023-05-21T19:02:39.830Z,37.49
2023-05-21T19:05:08.994Z,37.07
2023-05-21T19:07:36.253Z,36.95
2023-05-21T19:10:02.972Z,37.38
2023-05-21T19:12:31.227Z,37.79
2023-05-21T19:14:57.784Z,37.47
2023-05-21T19:17:24.162Z,37.62
2023-05-21T19:19:55.554Z,37.77
2023-05-21T19:22:25.126Z,37.58
2023-05-21T19:24:51.591Z,37.93
2023-05-21T19:27:18.139Z,38.08
2023-05-21T19:29:44.768Z,37.72
2023-05-21T19:32:11.467Z,37.78
2023-05-21T19:34:37.851Z,37.66
2023-05-21T19:37:04.284Z,37.31
2023-05-21T19:39:36.457Z,37.30
2023-05-21T19:42:02.810Z,37.79
2023-05-21T19:44:29.131Z,37.79
2023-05-21T19:46:55.889Z,37.66
2023-05-21T19:49:22.285Z,37.30
2023-05-21T19:51:49.649Z,37.27
2023-05-21T19:54:16.172Z,37.72
2023-05-21T19:56:42.506Z,37.63
2023-05-21T19:59:08.835Z,37.40
2023-05-21T20:01:39.306Z,37.68
2023-05-21T20:04:06.137Z,37.45
2023-05-21T20:06:32.557Z,37.33
2023-05-21T20:08:58.877Z,37.20
2023-05-21T20:11:25.907Z,37.44
2023-05-21T20:13:53.128Z,37.14
2023-05-21T20:16:20.008Z,36.87
2023-05-21T20:18:49.581Z,36.81
2023-05-21T20:21:18.939Z,37.03
2023-05-21T20:23:45.498Z,37.36
2023-05-21T20:26:12.134Z,39.46
2023-05-21T20:28:38.551Z,39.26
2023-05-21T20:31:04.939Z,39.06
2023-05-21T20:33:31.910Z,39.13
2023-05-21T20:35:58.230Z,38.22
2023-05-21T20:38:27.541Z,38.59
2023-05-21T20:40:54.372Z,39.04
2023-05-21T20:43:20.763Z,39.24
2023-05-21T20:45:47.987Z,39.50
2023-05-21T20:48:15.697Z,39.48
2023-05-21T20:50:43.988Z,40.28
2023-05-21T20:53:11.950Z,40.40
2023-05-21T20:55:38.269Z,40.90
2023-05-21T20:58:04.776Z,41.49
2023-05-21T21:00:31.604Z,41.31
2023-05-21T21:03:00.942Z,41.75
2023-05-21T21:05:28.013Z,42.04
2023-05-21T21:07:55.967Z,40.64
2023-05-21T21:10:22.573Z,40.67
2023-05-21T21:12:48.983Z,41.36
2023-05-21T21:15:15.416Z,41.53
2023-05-21T21:17:41.803Z,41.71
2023-05-21T21:20:10.531Z,42.30
2023-05-21T21:22:36.888Z,42.30
2023-05-21T21:25:03.243Z,42.36
2023-05-21T21:27:29.596Z,42.51
2023-05-21T21:29:55.920Z,42.47
2023-05-21T21:32:22.360Z,42.70
2023-05-21T21:34:48.751Z,42.31
2023-05-21T21:37:16.285Z,42.02
2023-05-21T21:39:42.754Z,41.86
2023-05-21T21:42:09.079Z,42.51
2023-05-21T21:44:35.420Z,42.41
2023-05-21T21:47:01.762Z,42.23
2023-05-21T21:49:28.080Z,41.39
2023-05-21T21:51:57.840Z,40.84
2023-05-21T21:54:24.464Z,41.09
2023-05-21T21:56:50.808Z,40.32
2023-05-21T21:59:17.131Z,40.86
2023-05-21T22:01:43.508Z,40.88
2023-05-21T22:04:11.178Z,41.69
2023-05-21T22:06:38.911Z,40.71
2023-05-21T22:09:05.636Z,40.91
2023-05-21T22:11:32.027Z,41.05
2023-05-21T22:14:00.275Z,42.08
2023-05-21T22:16:28.006Z,42.65
2023-05-21T22:18:54.553Z,42.21
2023-05-21T22:21:21.251Z,42.23
2023-05-21T22:23:47.596Z,42.62
2023-05-21T22:26:13.923Z,41.94
2023-05-21T22:28:40.281Z,41.93
2023-05-21T22:31:07.356Z,41.55
2023-05-21T22:33:33.770Z,41.42
2023-05-21T22:36:00.266Z,41.72
2023-05-21T22:38:26.626Z,42.16
2023-05-21T22:40:53.019Z,42.44
2023-05-21T22:43:19.356Z,43.08
2023-05-21T22:45:45.708Z,43.36
2023-05-21T22:48:12.167Z,43.09
2023-05-21T22:50:39.022Z,43.79
2023-05-21T22:53:05.671Z,43.62
2023-05-21T22:55:32.015Z,44.06
2023-05-21T22:57:58.340Z,43.98
2023-05-21T23:00:25.054Z,43.58
2023-05-21T23:02:53.959Z,44.19
2023-05-21T23:05:20.993Z,44.04
2023-05-21T23:07:47.332Z,45.03
2023-05-21T23:10:13.659Z,45.46
2023-05-21T23:12:40.756Z,45.44
2023-05-21T23:15:07.303Z,45.89
2023-05-21T23:17:33.702Z,45.37
2023-05-21T23:20:00.191Z,44.96
2023-05-21T23:22:26.544Z,44.72
2023-05-21T23:24:54.108Z,45.26
2023-05-21T23:27:20.539Z,44.91
2023-05-21T23:29:46.880Z,45.22
2023-05-21T23:32:13.268Z,44.19
2023-05-21T23:34:39.605Z,43.81
2023-05-21T23:37:05.975Z,43.55
2023-05-21T23:39:32.334Z,43.89
2023-05-21T23:41:59.090Z,45.35
2023-05-21T23:44:25.479Z,46.18
2023-05-21T23:46:51.838Z,45.44
2023-05-21T23:49:18.189Z,45.11
2023-05-21T23:51:44.615Z,45.37
2023-05-21T23:54:10.947Z,46.05
2023-05-21T23:56:37.323Z,45.58
2023-05-21T23:59:03.661Z,46.25
